Time;durP1;ratioP1;P1;durP2;ratioP2;P2;SDS_P1;SDS_P2;PMS_P1;PMS_P2;Temp;Humidity;BMP_temperature;BMP_pressure;BME280_temperature;BME280_humidity;BME280_pressure;Samples;Min_cycle;Max_cycle;Signal;HPM_P1;HPM_P2
2021/07/23 00:01:54;;;;;;;7.70;6.90;;;;;;;;;;5046445;28;20292;-81
2021/07/23 00:04:20;;;;;;;9.67;8.60;;;;;;;;;;5029792;28;20941;-80
2021/07/23 00:06:48;;;;;;;8.83;7.70;;;;;;;;;;5029711;28;20425;-80
2021/07/23 00:09:14;;;;;;;10.70;8.45;;;;;;;;;;5036218;28;20430;-80
2021/07/23 00:11:40;;;;;;;13.53;8.00;;;;;;;;;;5041095;28;20188;-80
2021/07/23 00:14:06;;;;;;;8.37;7.47;;;;;;;;;;5046889;28;20949;-80
2021/07/23 00:16:32;;;;;;;12.80;7.73;;;;;;;;;;5042860;28;20455;-80
2021/07/23 00:18:58;;;;;;;8.55;7.65;;;;;;;;;;5028897;28;20489;-80
2021/07/23 00:21:24;;;;;;;9.60;8.27;;;;;;;;;;5048650;28;20175;-80
2021/07/23 00:23:50;;;;;;;10.60;7.60;;;;;;;;;;5045522;28;20438;-81
2021/07/23 00:26:19;;;;;;;10.07;7.87;;;;;;;;;;5046760;28;20826;-80
2021/07/23 00:28:45;;;;;;;13.30;8.45;;;;;;;;;;5048082;28;20428;-81
2021/07/23 00:31:11;;;;;;;8.00;7.07;;;;;;;;;;5044120;28;20216;-81
2021/07/23 00:33:37;;;;;;;9.63;7.75;;;;;;;;;;5031491;28;20176;-81
2021/07/23 00:36:03;;;;;;;9.57;7.87;;;;;;;;;;5045024;28;20198;-81
2021/07/23 00:38:29;;;;;;;10.15;7.40;;;;;;;;;;5041802;28;20764;-81
2021/07/23 00:40:55;;;;;;;8.52;6.93;;;;;;;;;;5037322;28;20255;-80
2021/07/23 00:43:21;;;;;;;8.97;7.30;;;;;;;;;;5047073;28;20176;-80
2021/07/23 00:45:48;;;;;;;7.73;6.77;;;;;;;;;;5029063;28;20421;-80
2021/07/23 00:48:14;;;;;;;9.45;7.05;;;;;;;;;;5034619;28;20535;-81
2021/07/23 00:50:41;;;;;;;9.63;6.82;;;;;;;;;;5034511;28;20645;-80
2021/07/23 00:53:07;;;;;;;9.25;7.15;;;;;;;;;;5039736;28;20194;-80
2021/07/23 00:55:33;;;;;;;11.18;7.45;;;;;;;;;;5047537;28;20186;-80
2021/07/23 00:58:00;;;;;;;11.15;7.32;;;;;;;;;;5043913;28;20187;-80
2021/07/23 01:00:26;;;;;;;8.35;7.47;;;;;;;;;;5047662;28;20305;-80
2021/07/23 01:02:53;;;;;;;7.85;7.05;;;;;;;;;;5037450;28;20181;-81
2021/07/23 01:05:19;;;;;;;8.85;7.05;;;;;;;;;;5036878;28;20194;-81
2021/07/23 01:07:45;;;;;;;8.93;7.50;;;;;;;;;;5045842;28;20273;-80
2021/07/23 01:10:11;;;;;;;9.45;7.30;;;;;;;;;;5046393;28;20226;-81
2021/07/23 01:12:37;;;;;;;9.07;7.05;;;;;;;;;;5045420;28;20175;-81
2021/07/23 01:15:04;;;;;;;7.35;6.57;;;;;;;;;;5043827;28;20282;-80
2021/07/23 01:17:30;;;;;;;11.30;7.38;;;;;;;;;;5044216;28;20224;-80
2021/07/23 01:20:01;;;;;;;10.23;7.00;;;;;;;;;;5044379;28;20230;-80
2021/07/23 01:22:28;;;;;;;6.50;5.80;;;;;;;;;;5044886;28;20176;-80
2021/07/23 01:24:54;;;;;;;8.55;7.15;;;;;;;;;;5029812;28;20650;-81
2021/07/23 01:27:20;;;;;;;8.40;7.60;;;;;;;;;;5033380;28;20837;-80
2021/07/23 01:29:47;;;;;;;9.60;6.85;;;;;;;;;;5033505;28;20257;-80
2021/07/23 01:32:13;;;;;;;8.50;6.25;;;;;;;;;;5038444;28;20197;-80
2021/07/23 01:34:39;;;;;;;9.13;7.10;;;;;;;;;;5043134;28;20188;-80
2021/07/23 01:37:06;;;;;;;7.43;6.63;;;;;;;;;;5028684;28;20435;-80
2021/07/23 01:39:33;;;;;;;8.57;7.30;;;;;;;;;;5031409;28;20222;-80
2021/07/23 01:41:59;;;;;;;7.95;6.90;;;;;;;;;;5033030;28;20222;-81
2021/07/23 01:44:25;;;;;;;7.40;6.50;;;;;;;;;;5031319;28;20188;-80
2021/07/23 01:46:51;;;;;;;10.37;7.10;;;;;;;;;;5035476;28;20195;-80
2021/07/23 01:49:17;;;;;;;8.00;6.53;;;;;;;;;;5030205;28;20495;-81
2021/07/23 01:51:43;;;;;;;8.68;6.35;;;;;;;;;;5045031;28;21092;-80
2021/07/23 01:54:09;;;;;;;7.80;6.80;;;;;;;;;;5044551;28;20188;-80
2021/07/23 01:56:35;;;;;;;8.50;7.65;;;;;;;;;;5046197;28;20469;-80
2021/07/23 01:59:01;;;;;;;7.97;6.43;;;;;;;;;;5041850;28;20203;-80
2021/07/23 02:01:27;;;;;;;9.02;6.40;;;;;;;;;;5030797;28;20946;-80
2021/07/23 02:03:53;;;;;;;10.53;6.47;;;;;;;;;;5042916;28;20181;-80
2021/07/23 02:06:19;;;;;;;6.80;6.13;;;;;;;;;;5045195;28;20439;-81
2021/07/23 02:08:45;;;;;;;7.35;6.65;;;;;;;;;;5036109;28;20420;-81
2021/07/23 02:11:11;;;;;;;6.00;5.40;;;;;;;;;;5037702;28;20229;-81
2021/07/23 02:13:38;;;;;;;8.23;6.37;;;;;;;;;;5042461;28;20261;-80
2021/07/23 02:16:07;;;;;;;7.63;6.30;;;;;;;;;;5027972;28;20494;-80
2021/07/23 02:18:33;;;;;;;10.20;6.45;;;;;;;;;;5028475;28;20214;-80
2021/07/23 02:20:59;;;;;;;8.27;6.80;;;;;;;;;;5041251;28;20251;-81
2021/07/23 02:23:25;;;;;;;7.03;6.28;;;;;;;;;;5043577;28;20181;-81
2021/07/23 02:25:51;;;;;;;8.02;5.70;;;;;;;;;;5046128;28;20209;-80
2021/07/23 02:28:17;;;;;;;6.68;5.63;;;;;;;;;;5044707;28;20190;-81
2021/07/23 02:30:43;;;;;;;7.07;5.67;;;;;;;;;;5042988;28;20422;-81
2021/07/23 02:33:09;;;;;;;6.97;6.00;;;;;;;;;;5044580;28;20495;-81
2021/07/23 02:35:35;;;;;;;8.67;6.73;;;;;;;;;;5039750;28;20917;-80
2021/07/23 02:38:01;;;;;;;7.60;6.50;;;;;;;;;;5042969;28;20471;-81
2021/07/23 02:40:27;;;;;;;6.83;6.13;;;;;;;;;;5043082;28;20471;-80
2021/07/23 02:42:53;;;;;;;7.70;6.90;;;;;;;;;;5026783;28;20425;-80
2021/07/23 02:45:19;;;;;;;7.97;6.35;;;;;;;;;;5034155;28;20414;-81
2021/07/23 02:47:46;;;;;;;7.87;6.43;;;;;;;;;;5039246;28;20186;-80
2021/07/23 02:50:12;;;;;;;8.48;6.20;;;;;;;;;;5041429;28;20485;-81
2021/07/23 02:52:38;;;;;;;6.97;5.97;;;;;;;;;;5033010;28;20187;-81
2021/07/23 02:55:04;;;;;;;6.78;5.75;;;;;;;;;;5042911;28;20425;-80
2021/07/23 02:57:30;;;;;;;8.60;6.45;;;;;;;;;;5028496;28;20182;-81
2021/07/23 02:59:56;;;;;;;9.05;6.85;;;;;;;;;;5042238;28;20201;-81
2021/07/23 03:02:22;;;;;;;10.10;6.72;;;;;;;;;;5049691;28;20178;-81
2021/07/23 03:04:48;;;;;;;10.10;6.67;;;;;;;;;;5047604;28;20204;-81
2021/07/23 03:07:14;;;;;;;8.63;6.03;;;;;;;;;;5047345;28;20435;-80
2021/07/23 03:09:40;;;;;;;11.07;6.70;;;;;;;;;;5031202;28;20418;-80
2021/07/23 03:12:06;;;;;;;7.50;6.40;;;;;;;;;;5047940;28;20451;-80
2021/07/23 03:14:32;;;;;;;8.30;6.88;;;;;;;;;;5047007;28;20458;-81
2021/07/23 03:16:58;;;;;;;10.35;5.80;;;;;;;;;;5046470;28;20225;-81
2021/07/23 03:19:24;;;;;;;6.35;5.70;;;;;;;;;;5048159;28;20237;-81
2021/07/23 03:21:53;;;;;;;8.07;6.67;;;;;;;;;;5030979;28;20626;-81
2021/07/23 03:24:19;;;;;;;9.82;6.20;;;;;;;;;;5065979;28;20413;-81
2021/07/23 03:26:45;;;;;;;7.90;6.30;;;;;;;;;;5045963;28;20188;-80
2021/07/23 03:29:11;;;;;;;8.37;6.67;;;;;;;;;;5047548;28;20441;-80
2021/07/23 03:31:37;;;;;;;7.30;5.80;;;;;;;;;;5047994;28;20436;-80
2021/07/23 03:34:04;;;;;;;7.47;6.10;;;;;;;;;;5047138;28;20443;-80
2021/07/23 03:36:30;;;;;;;7.68;6.45;;;;;;;;;;5030249;28;20421;-81
2021/07/23 03:38:56;;;;;;;9.05;6.55;;;;;;;;;;5045142;28;20193;-81
2021/07/23 03:41:22;;;;;;;10.40;7.63;;;;;;;;;;5047199;28;20182;-81
2021/07/23 03:43:48;;;;;;;6.90;6.20;;;;;;;;;;5048204;28;20429;-81
2021/07/23 03:46:14;;;;;;;7.50;6.70;;;;;;;;;;5048160;28;20798;-81
2021/07/23 03:48:40;;;;;;;7.40;6.27;;;;;;;;;;5046369;28;20409;-81
2021/07/23 03:51:06;;;;;;;10.02;6.68;;;;;;;;;;5045657;28;20519;-81
2021/07/23 03:53:32;;;;;;;11.87;7.27;;;;;;;;;;5042957;28;20213;-81
2021/07/23 03:55:58;;;;;;;10.07;6.43;;;;;;;;;;5037731;28;20504;-81
2021/07/23 03:58:25;;;;;;;7.57;6.77;;;;;;;;;;5046262;28;20432;-80
2021/07/23 04:00:51;;;;;;;7.20;6.05;;;;;;;;;;5029704;28;20460;-81
2021/07/23 04:03:17;;;;;;;13.02;6.43;;;;;;;;;;5049191;28;20170;-81
2021/07/23 04:05:44;;;;;;;10.05;5.97;;;;;;;;;;5045243;28;20189;-81
2021/07/23 04:08:10;;;;;;;10.15;7.25;;;;;;;;;;5048143;28;20239;-80
2021/07/23 04:10:36;;;;;;;8.87;7.13;;;;;;;;;;5043868;28;20214;-81
2021/07/23 04:13:02;;;;;;;9.67;7.07;;;;;;;;;;5030965;28;20432;-81
2021/07/23 04:15:28;;;;;;;8.73;7.38;;;;;;;;;;5040770;28;20445;-81
2021/07/23 04:17:54;;;;;;;7.40;6.30;;;;;;;;;;5039183;28;20248;-81
2021/07/23 04:20:20;;;;;;;9.90;6.53;;;;;;;;;;5034227;28;20544;-81
2021/07/23 04:22:46;;;;;;;7.47;6.30;;;;;;;;;;5036936;28;20527;-81
2021/07/23 04:25:12;;;;;;;10.33;7.43;;;;;;;;;;5029483;28;21005;-80
2021/07/23 04:27:38;;;;;;;8.77;6.68;;;;;;;;;;5031220;28;20578;-80
2021/07/23 04:30:05;;;;;;;10.53;6.33;;;;;;;;;;5046626;28;20186;-80
2021/07/23 04:32:31;;;;;;;8.15;7.20;;;;;;;;;;5046355;28;20468;-81
2021/07/23 04:34:57;;;;;;;9.20;6.03;;;;;;;;;;5045601;28;20194;-81
2021/07/23 04:37:23;;;;;;;6.90;6.23;;;;;;;;;;5048557;28;20536;-81
2021/07/23 04:39:49;;;;;;;9.90;7.10;;;;;;;;;;5045495;28;20456;-80
2021/07/23 04:42:14;;;;;;;7.73;6.30;;;;;;;;;;5035622;28;20441;-81
2021/07/23 04:44:40;;;;;;;9.33;6.50;;;;;;;;;;5040304;28;20457;-81
2021/07/23 04:47:06;;;;;;;8.13;6.30;;;;;;;;;;5045274;28;20468;-81
2021/07/23 04:49:32;;;;;;;9.70;6.85;;;;;;;;;;5045615;28;20493;-80
2021/07/23 04:51:58;;;;;;;10.90;7.63;;;;;;;;;;5045569;28;20341;-80
2021/07/23 04:54:25;;;;;;;12.53;6.57;;;;;;;;;;5033438;28;20213;-81
2021/07/23 04:56:53;;;;;;;9.90;7.00;;;;;;;;;;5045072;28;20500;-81
2021/07/23 04:59:19;;;;;;;9.73;6.50;;;;;;;;;;5041751;28;20202;-80
2021/07/23 05:01:45;;;;;;;12.20;7.70;;;;;;;;;;5032747;28;20216;-81
2021/07/23 05:04:11;;;;;;;10.33;7.30;;;;;;;;;;5044392;28;20446;-81
2021/07/23 05:06:38;;;;;;;9.27;7.55;;;;;;;;;;5029804;28;20410;-80
2021/07/23 05:09:05;;;;;;;9.48;6.70;;;;;;;;;;5044430;28;20193;-81
2021/07/23 05:11:31;;;;;;;12.15;7.57;;;;;;;;;;5041372;28;20697;-80
2021/07/23 05:13:59;;;;;;;8.30;6.70;;;;;;;;;;5036469;28;20196;-81
2021/07/23 05:16:25;;;;;;;9.38;7.65;;;;;;;;;;5045308;28;20189;-81
2021/07/23 05:18:51;;;;;;;10.05;7.20;;;;;;;;;;5027397;28;20193;-80
2021/07/23 05:21:17;;;;;;;9.85;7.40;;;;;;;;;;5045965;28;20633;-80
2021/07/23 05:23:45;;;;;;;10.07;8.00;;;;;;;;;;5042829;28;20193;-81
2021/07/23 05:26:12;;;;;;;11.57;7.80;;;;;;;;;;5041520;28;20523;-80
2021/07/23 05:28:38;;;;;;;9.05;7.80;;;;;;;;;;5034221;28;20185;-81
2021/07/23 05:31:05;;;;;;;10.65;7.00;;;;;;;;;;5045282;28;20182;-80
2021/07/23 05:33:31;;;;;;;13.93;6.95;;;;;;;;;;5031885;28;20167;-80
2021/07/23 05:35:56;;;;;;;10.80;7.00;;;;;;;;;;5043101;28;20196;-80
2021/07/23 05:38:22;;;;;;;8.33;7.47;;;;;;;;;;5042602;28;20476;-80
2021/07/23 05:40:48;;;;;;;9.30;8.30;;;;;;;;;;5033565;28;20471;-80
2021/07/23 05:43:15;;;;;;;9.20;7.83;;;;;;;;;;5029946;28;20432;-80
2021/07/23 05:45:41;;;;;;;8.77;7.40;;;;;;;;;;5044737;28;20497;-81
2021/07/23 05:48:07;;;;;;;10.90;7.40;;;;;;;;;;5043655;28;20198;-80
2021/07/23 05:50:34;;;;;;;11.88;8.75;;;;;;;;;;5045608;28;20192;-81
2021/07/23 05:53:00;;;;;;;13.98;9.05;;;;;;;;;;5045045;28;20247;-80
2021/07/23 05:55:27;;;;;;;16.70;10.05;;;;;;;;;;5046418;28;20193;-81
2021/07/23 05:57:59;;;;;;;11.27;8.82;;;;;;;;;;5042400;28;20278;-81
2021/07/23 06:00:26;;;;;;;11.32;8.18;;;;;;;;;;5041835;28;20543;-81
2021/07/23 06:02:52;;;;;;;12.32;9.38;;;;;;;;;;5043570;28;20182;-81
2021/07/23 06:05:18;;;;;;;14.35;10.40;;;;;;;;;;5041643;28;20257;-80
2021/07/23 06:07:44;;;;;;;17.45;10.05;;;;;;;;;;5032553;28;20198;-81
2021/07/23 06:10:10;;;;;;;12.70;8.90;;;;;;;;;;5045280;28;20198;-80
2021/07/23 06:12:36;;;;;;;13.82;10.70;;;;;;;;;;5030159;28;20446;-80
2021/07/23 06:15:02;;;;;;;17.83;10.37;;;;;;;;;;5035366;28;20223;-81
2021/07/23 06:17:28;;;;;;;13.75;9.85;;;;;;;;;;5042781;28;20540;-81
2021/07/23 06:19:54;;;;;;;12.13;9.02;;;;;;;;;;5045670;28;20249;-81
2021/07/23 06:22:20;;;;;;;13.17;10.90;;;;;;;;;;5045074;28;20250;-80
2021/07/23 06:24:46;;;;;;;13.87;9.63;;;;;;;;;;5039907;28;20422;-81
2021/07/23 06:27:12;;;;;;;15.38;9.80;;;;;;;;;;5043597;28;20424;-80
2021/07/23 06:29:38;;;;;;;14.70;10.55;;;;;;;;;;5037622;28;20202;-80
2021/07/23 06:32:04;;;;;;;12.23;9.53;;;;;;;;;;5034893;28;20210;-81
2021/07/23 06:34:30;;;;;;;11.63;8.95;;;;;;;;;;5039435;28;20397;-80
2021/07/23 06:36:56;;;;;;;15.03;10.17;;;;;;;;;;5027339;28;20203;-80
2021/07/23 06:39:22;;;;;;;17.60;11.00;;;;;;;;;;5045708;28;20425;-81
2021/07/23 06:41:48;;;;;;;15.90;11.10;;;;;;;;;;5045554;28;20436;-80
2021/07/23 06:44:14;;;;;;;14.97;10.80;;;;;;;;;;5040823;28;20417;-80
2021/07/23 06:46:40;;;;;;;14.85;9.20;;;;;;;;;;5031427;28;20447;-81
2021/07/23 06:49:06;;;;;;;9.20;8.30;;;;;;;;;;5042363;28;20241;-81
2021/07/23 06:51:32;;;;;;;11.93;8.70;;;;;;;;;;5028734;28;20490;-81
2021/07/23 06:53:59;;;;;;;15.93;11.40;;;;;;;;;;5043454;28;20435;-81
2021/07/23 06:56:25;;;;;;;13.77;10.83;;;;;;;;;;5040484;28;20502;-80
2021/07/23 06:58:51;;;;;;;11.63;10.40;;;;;;;;;;5043071;28;20443;-81
2021/07/23 07:01:17;;;;;;;12.40;10.20;;;;;;;;;;5045523;28;20438;-81
2021/07/23 07:03:43;;;;;;;10.20;9.07;;;;;;;;;;5027003;28;20445;-81
2021/07/23 07:06:09;;;;;;;12.63;10.60;;;;;;;;;;5039603;28;20443;-80
2021/07/23 07:08:35;;;;;;;14.67;11.20;;;;;;;;;;5040077;28;20442;-81
2021/07/23 07:11:01;;;;;;;12.03;9.93;;;;;;;;;;5044940;28;20407;-80
2021/07/23 07:13:27;;;;;;;16.05;9.05;;;;;;;;;;5043181;28;20464;-80
2021/07/23 07:15:53;;;;;;;11.73;10.40;;;;;;;;;;5025629;28;20178;-81
2021/07/23 07:18:19;;;;;;;15.40;11.13;;;;;;;;;;5031916;28;20230;-81
2021/07/23 07:20:45;;;;;;;14.30;11.87;;;;;;;;;;5040638;28;20457;-80
2021/07/23 07:23:11;;;;;;;15.33;10.90;;;;;;;;;;5042699;28;20768;-81
2021/07/23 07:25:37;;;;;;;13.43;10.90;;;;;;;;;;5044131;28;20435;-81
2021/07/23 07:28:03;;;;;;;11.90;9.80;;;;;;;;;;5044423;28;20466;-80
2021/07/23 07:30:29;;;;;;;11.30;8.57;;;;;;;;;;5045065;28;20436;-80
2021/07/23 07:32:56;;;;;;;15.50;11.10;;;;;;;;;;5042129;28;20410;-80
2021/07/23 07:35:22;;;;;;;13.43;10.10;;;;;;;;;;5040121;28;20868;-81
2021/07/23 07:37:48;;;;;;;13.27;10.20;;;;;;;;;;5033575;28;20440;-81
2021/07/23 07:40:14;;;;;;;20.43;11.27;;;;;;;;;;5028240;28;20483;-80
2021/07/23 07:42:41;;;;;;;15.53;10.93;;;;;;;;;;5028405;28;20426;-80
2021/07/23 07:45:07;;;;;;;11.50;10.20;;;;;;;;;;5042579;28;20402;-80
2021/07/23 07:47:33;;;;;;;12.80;8.83;;;;;;;;;;5039794;28;20465;-80
2021/07/23 07:49:59;;;;;;;17.50;9.90;;;;;;;;;;5036793;28;20513;-80
2021/07/23 07:52:25;;;;;;;12.60;10.13;;;;;;;;;;5049099;28;20484;-80
2021/07/23 07:54:51;;;;;;;15.93;9.13;;;;;;;;;;5045124;28;20900;-80
2021/07/23 07:57:17;;;;;;;11.37;9.20;;;;;;;;;;5036181;28;20868;-81
2021/07/23 07:59:43;;;;;;;11.67;9.67;;;;;;;;;;5042158;28;20435;-80
2021/07/23 08:02:10;;;;;;;12.40;9.30;;;;;;;;;;5043552;28;20443;-81
2021/07/23 08:04:36;;;;;;;15.00;10.20;;;;;;;;;;5047028;28;20435;-81
2021/07/23 08:07:04;;;;;;;13.93;10.20;;;;;;;;;;5046190;28;20432;-80
2021/07/23 08:09:36;;;;;;;10.90;8.60;;;;;;;;;;5032121;28;20483;-80
2021/07/23 08:12:01;;;;;;;13.70;10.33;;;;;;;;;;5046346;28;20459;-81
2021/07/23 08:14:27;;;;;;;14.30;8.77;;;;;;;;;;5041218;28;20437;-80
2021/07/23 08:16:53;;;;;;;11.60;9.50;;;;;;;;;;5034372;28;21088;-80
2021/07/23 08:19:20;;;;;;;9.90;8.03;;;;;;;;;;5045291;28;20477;-80
2021/07/23 08:21:46;;;;;;;11.90;9.30;;;;;;;;;;5044885;28;20421;-81
2021/07/23 08:24:12;;;;;;;14.20;9.33;;;;;;;;;;5046471;28;20410;-81
2021/07/23 08:26:38;;;;;;;11.13;9.23;;;;;;;;;;5045425;28;20786;-81
2021/07/23 08:29:04;;;;;;;12.90;10.70;;;;;;;;;;5044811;28;20416;-81
2021/07/23 08:31:30;;;;;;;12.60;9.40;;;;;;;;;;5030215;28;20408;-81
2021/07/23 08:33:56;;;;;;;13.80;8.80;;;;;;;;;;5028366;28;20416;-81
2021/07/23 08:36:22;;;;;;;10.17;8.83;;;;;;;;;;5046833;28;20380;-81
2021/07/23 08:38:48;;;;;;;10.60;9.50;;;;;;;;;;5048019;28;20449;-80
2021/07/23 08:41:14;;;;;;;13.83;11.07;;;;;;;;;;5046764;28;20522;-81
2021/07/23 08:43:40;;;;;;;15.23;10.20;;;;;;;;;;5044777;28;20476;-81
2021/07/23 08:46:06;;;;;;;10.17;8.67;;;;;;;;;;5029332;28;20407;-80
2021/07/23 08:48:33;;;;;;;11.83;9.67;;;;;;;;;;5048359;28;20496;-81
2021/07/23 08:50:59;;;;;;;12.33;9.57;;;;;;;;;;5044715;28;20419;-79
2021/07/23 08:53:25;;;;;;;13.20;8.30;;;;;;;;;;5044985;28;20432;-80
2021/07/23 08:55:51;;;;;;;11.87;8.77;;;;;;;;;;5046274;28;20467;-81
2021/07/23 08:58:18;;;;;;;13.20;9.27;;;;;;;;;;5029846;28;21238;-80
2021/07/23 09:00:46;;;;;;;9.57;8.57;;;;;;;;;;5044524;28;20437;-81
2021/07/23 09:03:12;;;;;;;12.77;8.50;;;;;;;;;;5034715;28;20883;-80
2021/07/23 09:05:42;;;;;;;11.40;8.90;;;;;;;;;;5034451;28;20510;-81
2021/07/23 09:08:08;;;;;;;13.97;8.90;;;;;;;;;;5035409;28;20431;-81
2021/07/23 09:10:34;;;;;;;10.17;9.17;;;;;;;;;;5043170;28;20443;-81
2021/07/23 09:13:05;;;;;;;10.00;9.00;;;;;;;;;;5028003;28;20920;-80
2021/07/23 09:15:37;;;;;;;11.90;9.53;;;;;;;;;;5029536;28;20628;-81
2021/07/23 09:18:05;;;;;;;11.03;8.80;;;;;;;;;;5043899;28;20464;-81
2021/07/23 09:20:31;;;;;;;9.87;8.73;;;;;;;;;;5040150;28;20486;-80
2021/07/23 09:22:58;;;;;;;9.90;8.80;;;;;;;;;;5033760;28;20879;-79
2021/07/23 09:25:34;;;;;;;10.57;9.13;;;;;;;;;;5029011;28;20414;-80
2021/07/23 09:28:01;;;;;;;9.50;8.50;;;;;;;;;;5027491;28;20918;-80
2021/07/23 09:30:41;;;;;;;10.40;9.30;;;;;;;;;;5047262;28;20426;-80
2021/07/23 09:33:07;;;;;;;11.27;9.83;;;;;;;;;;5034596;28;20454;-80
2021/07/23 09:35:33;;;;;;;10.43;9.03;;;;;;;;;;5033872;28;20441;-79
2021/07/23 09:38:00;;;;;;;10.70;9.70;;;;;;;;;;5034786;28;20419;-81
2021/07/23 09:40:26;;;;;;;12.00;9.43;;;;;;;;;;5030056;28;20457;-81
2021/07/23 09:42:59;;;;;;;12.30;9.20;;;;;;;;;;5042155;28;20427;-80
2021/07/23 09:45:29;;;;;;;10.80;9.67;;;;;;;;;;5046903;28;20390;-80
2021/07/23 09:48:14;;;;;;;10.00;9.00;;;;;;;;;;5043652;28;20450;-80
2021/07/23 09:50:47;;;;;;;11.23;8.90;;;;;;;;;;5038149;28;20430;-80
2021/07/23 09:53:15;;;;;;;9.47;8.47;;;;;;;;;;5032523;28;20681;-80
2021/07/23 09:55:44;;;;;;;8.40;7.60;;;;;;;;;;5030735;28;20422;-80
2021/07/23 09:58:12;;;;;;;10.47;8.73;;;;;;;;;;5027811;28;20426;-80
2021/07/23 10:00:39;;;;;;;10.10;9.07;;;;;;;;;;5044935;28;20464;-80
2021/07/23 10:03:12;;;;;;;14.87;8.60;;;;;;;;;;5044869;28;20441;-81
2021/07/23 10:05:43;;;;;;;9.63;8.73;;;;;;;;;;5043533;28;20542;-80
2021/07/23 10:08:13;;;;;;;9.30;8.40;;;;;;;;;;5043462;28;20440;-81
2021/07/23 10:10:42;;;;;;;9.00;8.10;;;;;;;;;;5046286;28;20439;-80
2021/07/23 10:13:09;;;;;;;12.20;9.30;;;;;;;;;;5043485;28;20419;-80
2021/07/23 10:15:37;;;;;;;10.47;9.37;;;;;;;;;;5046631;28;20429;-80
2021/07/23 10:18:04;;;;;;;10.40;9.40;;;;;;;;;;5034142;28;20526;-80
2021/07/23 10:20:30;;;;;;;11.50;10.30;;;;;;;;;;5039410;28;20464;-80
2021/07/23 10:22:56;;;;;;;11.63;9.07;;;;;;;;;;5044442;28;20517;-80
2021/07/23 10:25:24;;;;;;;11.23;8.97;;;;;;;;;;5044116;28;20430;-81
2021/07/23 10:27:50;;;;;;;10.83;8.90;;;;;;;;;;5028257;28;20741;-80
2021/07/23 10:30:28;;;;;;;11.90;8.80;;;;;;;;;;5046371;28;20457;-80
2021/07/23 10:32:54;;;;;;;11.73;8.80;;;;;;;;;;5035104;28;20456;-81
2021/07/23 10:35:20;;;;;;;13.27;10.07;;;;;;;;;;5035654;28;20410;-80
2021/07/23 10:37:50;;;;;;;13.50;8.40;;;;;;;;;;5045505;28;20415;-81
2021/07/23 10:40:17;;;;;;;9.77;8.77;;;;;;;;;;5045100;28;20492;-81
2021/07/23 10:42:43;;;;;;;12.00;8.80;;;;;;;;;;5037336;28;20506;-81
2021/07/23 10:45:12;;;;;;;9.70;8.70;;;;;;;;;;5041819;28;20430;-82
2021/07/23 10:47:39;;;;;;;8.60;7.63;;;;;;;;;;5038300;28;20445;-81
2021/07/23 10:50:06;;;;;;;8.70;7.83;;;;;;;;;;5035541;28;20531;-81
2021/07/23 10:52:42;;;;;;;11.33;8.80;;;;;;;;;;5040932;28;20438;-81
2021/07/23 10:55:20;;;;;;;10.60;8.77;;;;;;;;;;5026361;28;20421;-82
2021/07/23 10:58:07;;;;;;;11.30;8.80;;;;;;;;;;5039383;28;20420;-82
2021/07/23 11:00:53;;;;;;;10.73;8.93;;;;;;;;;;5057175;28;20464;-83
2021/07/23 11:03:37;;;;;;;8.67;7.90;;;;;;;;;;5032228;28;20479;-82
2021/07/23 11:06:35;;;;;;;9.73;8.83;;;;;;;;;;5041239;28;20428;-82
2021/07/23 11:09:06;;;;;;;9.27;8.33;;;;;;;;;;5030285;28;20476;-82
2021/07/23 11:11:32;;;;;;;10.90;8.33;;;;;;;;;;5030969;28;20842;-82
2021/07/23 11:14:18;;;;;;;8.80;8.00;;;;;;;;;;5032307;28;20428;-82
2021/07/23 11:16:44;;;;;;;8.47;7.77;;;;;;;;;;5032620;28;20458;-81
2021/07/23 11:19:16;;;;;;;8.20;7.50;;;;;;;;;;5042582;28;20489;-82
2021/07/23 11:21:42;;;;;;;8.00;7.23;;;;;;;;;;5031612;28;20459;-82
2021/07/23 11:24:09;;;;;;;7.57;6.70;;;;;;;;;;5044923;28;20431;-82
2021/07/23 11:26:35;;;;;;;9.13;8.23;;;;;;;;;;5046670;28;20437;-81
2021/07/23 11:29:01;;;;;;;9.67;7.47;;;;;;;;;;5045880;28;20428;-81
2021/07/23 11:31:29;;;;;;;9.50;6.83;;;;;;;;;;5032458;28;20454;-82
2021/07/23 11:33:55;;;;;;;8.70;7.10;;;;;;;;;;5029855;28;20427;-81
2021/07/23 11:36:38;;;;;;;7.87;7.07;;;;;;;;;;5048007;28;20470;-82
2021/07/23 11:39:06;;;;;;;7.93;7.23;;;;;;;;;;5048187;28;20451;-81
2021/07/23 11:41:32;;;;;;;9.80;8.90;;;;;;;;;;5046491;28;20433;-81
2021/07/23 11:44:08;;;;;;;9.37;8.03;;;;;;;;;;5045822;28;20433;-82
2021/07/23 11:46:34;;;;;;;9.13;8.27;;;;;;;;;;5044668;28;20477;-81
2021/07/23 11:49:01;;;;;;;10.53;7.60;;;;;;;;;;5029940;28;20432;-81
2021/07/23 11:51:41;;;;;;;9.60;8.70;;;;;;;;;;5035129;28;20452;-81
2021/07/23 11:54:07;;;;;;;9.23;7.83;;;;;;;;;;5041891;28;20504;-81
2021/07/23 11:56:33;;;;;;;10.10;8.57;;;;;;;;;;5044020;28;20440;-81
2021/07/23 11:59:03;;;;;;;9.50;8.23;;;;;;;;;;5048049;28;20440;-81
2021/07/23 12:01:33;;;;;;;9.70;7.40;;;;;;;;;;5047761;28;20451;-81
2021/07/23 12:03:59;;;;;;;10.17;8.63;;;;;;;;;;5030313;28;20444;-81
2021/07/23 12:06:32;;;;;;;10.90;8.50;;;;;;;;;;5034678;28;20448;-82
2021/07/23 12:09:01;;;;;;;9.80;8.47;;;;;;;;;;5036121;28;20448;-81
2021/07/23 12:11:29;;;;;;;9.60;8.60;;;;;;;;;;5039338;28;20432;-82
2021/07/23 12:13:56;;;;;;;10.93;8.20;;;;;;;;;;5046619;28;20419;-82
2021/07/23 12:16:22;;;;;;;9.10;8.30;;;;;;;;;;5047302;28;20540;-82
2021/07/23 12:18:58;;;;;;;9.57;8.20;;;;;;;;;;5031178;28;20939;-82
2021/07/23 12:21:25;;;;;;;8.83;7.90;;;;;;;;;;5047275;28;20495;-81
2021/07/23 12:23:58;;;;;;;8.50;7.67;;;;;;;;;;5036455;28;20778;-81
2021/07/23 12:26:34;;;;;;;8.43;7.63;;;;;;;;;;5039167;28;20470;-81
2021/07/23 12:29:01;;;;;;;9.13;8.33;;;;;;;;;;5045981;28;20438;-82
2021/07/23 12:31:27;;;;;;;10.80;7.67;;;;;;;;;;5030767;28;20436;-81
2021/07/23 12:34:03;;;;;;;8.30;7.50;;;;;;;;;;5029113;28;20409;-81
2021/07/23 12:36:29;;;;;;;7.97;7.13;;;;;;;;;;5048458;28;20413;-82
2021/07/23 12:39:04;;;;;;;9.87;7.10;;;;;;;;;;5047599;28;21016;-83
2021/07/23 12:41:31;;;;;;;7.87;7.20;;;;;;;;;;5046800;28;20499;-82
2021/07/23 12:44:04;;;;;;;8.53;7.73;;;;;;;;;;5047335;28;20467;-82
2021/07/23 12:46:31;;;;;;;7.30;6.60;;;;;;;;;;5046703;28;20523;-81
2021/07/23 12:49:07;;;;;;;8.40;7.47;;;;;;;;;;5028203;28;20417;-81
2021/07/23 12:51:33;;;;;;;7.27;6.67;;;;;;;;;;5045036;28;20424;-82
2021/07/23 12:53:59;;;;;;;8.20;7.40;;;;;;;;;;5047255;28;20894;-81
2021/07/23 12:56:32;;;;;;;9.93;7.10;;;;;;;;;;5042362;28;20445;-82
2021/07/23 12:58:59;;;;;;;7.10;6.40;;;;;;;;;;5035614;28;20468;-81
2021/07/23 13:01:25;;;;;;;7.57;6.43;;;;;;;;;;5044986;28;20447;-82
2021/07/23 13:03:53;;;;;;;6.97;6.10;;;;;;;;;;5029102;28;20819;-82
2021/07/23 13:06:21;;;;;;;6.30;5.70;;;;;;;;;;5034753;28;20438;-81
2021/07/23 13:08:47;;;;;;;7.60;6.90;;;;;;;;;;5041329;28;20688;-81
2021/07/23 13:11:15;;;;;;;6.50;6.00;;;;;;;;;;5044380;28;20441;-82
2021/07/23 13:13:42;;;;;;;6.90;6.20;;;;;;;;;;5046896;28;20431;-81
2021/07/23 13:16:08;;;;;;;20.53;7.73;;;;;;;;;;5044682;28;20780;-81
2021/07/23 13:18:35;;;;;;;7.27;6.50;;;;;;;;;;5030047;28;20461;-81
2021/07/23 13:21:02;;;;;;;6.57;6.07;;;;;;;;;;5042815;28;20881;-81
2021/07/23 13:23:29;;;;;;;7.50;6.47;;;;;;;;;;5045072;28;20981;-81
2021/07/23 13:25:57;;;;;;;8.40;6.30;;;;;;;;;;5046362;28;20437;-80
2021/07/23 13:28:23;;;;;;;9.03;5.90;;;;;;;;;;5031670;28;20451;-81
2021/07/23 13:30:49;;;;;;;8.90;6.90;;;;;;;;;;5028269;28;20410;-81
2021/07/23 13:33:15;;;;;;;7.07;6.10;;;;;;;;;;5044776;28;20448;-83
2021/07/23 13:35:41;;;;;;;11.03;6.30;;;;;;;;;;5044155;28;20448;-83
2021/07/23 13:38:17;;;;;;;7.00;6.30;;;;;;;;;;5046735;28;20437;-82
2021/07/23 13:40:43;;;;;;;7.27;6.50;;;;;;;;;;5045524;28;20467;-81
2021/07/23 13:43:12;;;;;;;6.20;5.70;;;;;;;;;;5026788;28;20436;-81
2021/07/23 13:45:38;;;;;;;6.60;6.10;;;;;;;;;;5029810;28;20424;-82
2021/07/23 13:48:05;;;;;;;7.10;6.10;;;;;;;;;;5044863;28;20427;-82
2021/07/23 13:50:31;;;;;;;7.27;6.57;;;;;;;;;;5045021;28;20432;-82
2021/07/23 13:52:57;;;;;;;5.90;5.40;;;;;;;;;;5046320;28;20428;-81
2021/07/23 13:55:23;;;;;;;6.57;5.97;;;;;;;;;;5047023;28;20454;-81
2021/07/23 13:57:49;;;;;;;7.20;6.40;;;;;;;;;;5043379;28;20416;-82
2021/07/23 14:00:15;;;;;;;7.27;6.47;;;;;;;;;;5045225;28;20562;-82
2021/07/23 14:02:41;;;;;;;6.57;5.50;;;;;;;;;;5043581;28;20467;-82
2021/07/23 14:05:07;;;;;;;10.93;5.30;;;;;;;;;;5044341;28;20519;-81
2021/07/23 14:07:33;;;;;;;7.30;6.70;;;;;;;;;;5045183;28;20915;-82
2021/07/23 14:10:03;;;;;;;7.50;6.80;;;;;;;;;;5028350;28;20421;-82
2021/07/23 14:12:29;;;;;;;7.20;6.03;;;;;;;;;;5032427;28;20804;-81
2021/07/23 14:14:55;;;;;;;7.13;6.53;;;;;;;;;;5038039;28;20436;-81
2021/07/23 14:17:21;;;;;;;5.93;5.33;;;;;;;;;;5038167;28;20493;-81
2021/07/23 14:19:48;;;;;;;7.03;6.20;;;;;;;;;;5045368;28;20483;-81
2021/07/23 14:22:14;;;;;;;6.80;5.80;;;;;;;;;;5043189;28;20530;-81
2021/07/23 14:24:41;;;;;;;7.47;6.20;;;;;;;;;;5029715;28;20530;-82
2021/07/23 14:27:07;;;;;;;7.00;6.40;;;;;;;;;;5044116;28;20906;-80
2021/07/23 14:29:34;;;;;;;7.33;5.97;;;;;;;;;;5044341;28;20441;-81
2021/07/23 14:32:00;;;;;;;7.17;6.30;;;;;;;;;;5043420;28;20477;-82
2021/07/23 14:34:26;;;;;;;6.67;6.07;;;;;;;;;;5028999;28;20450;-81
2021/07/23 14:36:52;;;;;;;8.33;5.97;;;;;;;;;;5042265;28;20425;-82